sensor_id;sensor_type;location;lat;lon;timestamp;pressure;altitude;pressure_sealevel;temperature;humidity
12801;BME280;6464;42.494;27.470;2022-10-03T04:01:36;101198.25;;;13.12;100.00
12801;BME280;6464;42.494;27.470;2022-10-03T04:04:26;101279.22;;;13.68;100.00
12801;BME280;6464;42.494;27.470;2022-10-03T04:07:05;101280.97;;;13.69;100.00
12801;BME280;6464;42.494;27.470;2022-10-03T04:10:00;101143.25;;;12.85;100.00
12801;BME280;6464;42.494;27.470;2022-10-03T04:12:49;101283.66;;;13.67;100.00
12801;BME280;6464;42.494;27.470;2022-10-03T04:15:50;101322.03;;;13.89;100.00
12801;BME280;6464;42.494;27.470;2022-10-03T04:18:32;101286.34;;;13.66;100.00
12801;BME280;6464;42.494;27.470;2022-10-03T04:21:45;101354.66;;;13.93;100.00
12801;BME280;6464;42.494;27.470;2022-10-03T04:27:35;101256.38;;;13.20;100.00
12801;BME280;6464;42.494;27.470;2022-10-03T04:30:10;101181.44;;;12.73;100.00
12801;BME280;6464;42.494;27.470;2022-10-03T04:33:04;101205.00;;;12.85;100.00
12801;BME280;6464;42.494;27.470;2022-10-03T04:38:47;101373.34;;;13.87;100.00
12801;BME280;6464;42.494;27.470;2022-10-03T04:41:28;101209.38;;;12.88;100.00
12801;BME280;6464;42.494;27.470;2022-10-03T04:44:08;101324.06;;;13.77;100.00
12801;BME280;6464;42.494;27.470;2022-10-03T04:46:42;101240.00;;;13.45;100.00
12801;BME280;6464;42.494;27.470;2022-10-03T04:49:22;101360.13;;;14.24;100.00
12801;BME280;6464;42.494;27.470;2022-10-03T04:51:59;101271.25;;;13.68;100.00
12801;BME280;6464;42.494;27.470;2022-10-03T04:54:40;101185.66;;;13.25;100.00
12801;BME280;6464;42.494;27.470;2022-10-03T04:57:23;101264.78;;;13.81;100.00
12801;BME280;6464;42.494;27.470;2022-10-03T04:59:59;101366.03;;;14.37;100.00
12801;BME280;6464;42.494;27.470;2022-10-03T05:02:41;101376.66;;;14.37;100.00
12801;BME280;6464;42.494;27.470;2022-10-03T05:05:25;101200.16;;;13.49;100.00
12801;BME280;6464;42.494;27.470;2022-10-03T05:08:01;101276.84;;;13.94;100.00
12801;BME280;6464;42.494;27.470;2022-10-03T05:11:03;101360.44;;;14.49;100.00
12801;BME280;6464;42.494;27.470;2022-10-03T05:13:59;101209.56;;;13.61;100.00
12801;BME280;6464;42.494;27.470;2022-10-03T05:16:37;101366.00;;;14.74;100.00
12801;BME280;6464;42.494;27.470;2022-10-03T05:19:36;101230.06;;;13.92;100.00
12801;BME280;6464;42.494;27.470;2022-10-03T05:22:15;101393.13;;;14.87;100.00
12801;BME280;6464;42.494;27.470;2022-10-03T05:24:57;101199.09;;;13.94;100.00
12801;BME280;6464;42.494;27.470;2022-10-03T05:27:35;101337.84;;;14.69;100.00
12801;BME280;6464;42.494;27.470;2022-10-03T05:30:16;101290.06;;;14.33;100.00
12801;BME280;6464;42.494;27.470;2022-10-03T05:32:50;101304.78;;;14.45;100.00
12801;BME280;6464;42.494;27.470;2022-10-03T05:35:30;101284.81;;;14.31;100.00
12801;BME280;6464;42.494;27.470;2022-10-03T05:38:38;101174.81;;;13.75;100.00
12801;BME280;6464;42.494;27.470;2022-10-03T05:41:21;101342.13;;;14.74;100.00
12801;BME280;6464;42.494;27.470;2022-10-03T05:44:03;101313.19;;;14.63;100.00
12801;BME280;6464;42.494;27.470;2022-10-03T05:46:56;101186.31;;;13.74;100.00
12801;BME280;6464;42.494;27.470;2022-10-03T05:49:53;101343.59;;;14.86;100.00
12801;BME280;6464;42.494;27.470;2022-10-03T05:52:52;101366.41;;;14.93;100.00
12801;BME280;6464;42.494;27.470;2022-10-03T05:55:34;101238.97;;;14.25;100.00
12801;BME280;6464;42.494;27.470;2022-10-03T06:02:06;101217.31;;;14.06;100.00
12801;BME280;6464;42.494;27.470;2022-10-03T06:05:10;101381.31;;;15.33;100.00
12801;BME280;6464;42.494;27.470;2022-10-03T06:07:51;101276.47;;;14.81;100.00
12801;BME280;6464;42.494;27.470;2022-10-03T06:10:46;101407.88;;;15.65;100.00
12801;BME280;6464;42.494;27.470;2022-10-03T06:13:23;101345.47;;;15.46;100.00
12801;BME280;6464;42.494;27.470;2022-10-03T06:16:03;101288.25;;;15.34;100.00
12801;BME280;6464;42.494;27.470;2022-10-03T06:28:21;101264.66;;;15.52;100.00
12801;BME280;6464;42.494;27.470;2022-10-03T06:37:32;101297.63;;;16.05;100.00
12801;BME280;6464;42.494;27.470;2022-10-03T06:40:35;101300.78;;;16.44;100.00
12801;BME280;6464;42.494;27.470;2022-10-03T06:43:48;101349.19;;;16.84;100.00
12801;BME280;6464;42.494;27.470;2022-10-03T06:46:47;101492.47;;;17.54;100.00
12801;BME280;6464;42.494;27.470;2022-10-03T06:49:52;101473.84;;;17.27;100.00
12801;BME280;6464;42.494;27.470;2022-10-03T06:52:49;101387.28;;;16.86;100.00
12801;BME280;6464;42.494;27.470;2022-10-03T06:56:05;101465.56;;;17.60;100.00
12801;BME280;6464;42.494;27.470;2022-10-03T07:05:36;101296.97;;;17.28;100.00
12801;BME280;6464;42.494;27.470;2022-10-03T07:08:38;101464.50;;;18.59;100.00
12801;BME280;6464;42.494;27.470;2022-10-03T07:11:51;101319.13;;;17.77;100.00
12801;BME280;6464;42.494;27.470;2022-10-03T07:14:56;101506.44;;;18.81;100.00
12801;BME280;6464;42.494;27.470;2022-10-03T07:17:40;101349.41;;;18.00;100.00
12801;BME280;6464;42.494;27.470;2022-10-03T07:20:37;101369.22;;;18.16;100.00
12801;BME280;6464;42.494;27.470;2022-10-03T07:23:42;101465.53;;;18.79;100.00
12801;BME280;6464;42.494;27.470;2022-10-03T07:33:07;101483.47;;;19.61;100.00
12801;BME280;6464;42.494;27.470;2022-10-03T07:42:40;101452.59;;;20.12;100.00
12801;BME280;6464;42.494;27.470;2022-10-03T07:45:43;101335.72;;;19.53;100.00
12801;BME280;6464;42.494;27.470;2022-10-03T07:48:48;101493.31;;;20.58;100.00
12801;BME280;6464;42.494;27.470;2022-10-03T07:51:41;101332.47;;;19.67;100.00
12801;BME280;6464;42.494;27.470;2022-10-03T07:54:44;101424.44;;;20.22;100.00
12801;BME280;6464;42.494;27.470;2022-10-03T07:57:32;101424.09;;;20.49;100.00
12801;BME280;6464;42.494;27.470;2022-10-03T08:00:21;101413.41;;;20.66;100.00
12801;BME280;6464;42.494;27.470;2022-10-03T08:03:27;101448.09;;;20.69;100.00
12801;BME280;6464;42.494;27.470;2022-10-03T08:06:40;101408.44;;;20.59;100.00
12801;BME280;6464;42.494;27.470;2022-10-03T08:12:57;101344.34;;;20.54;100.00
12801;BME280;6464;42.494;27.470;2022-10-03T08:15:55;101462.16;;;21.28;100.00
12801;BME280;6464;42.494;27.470;2022-10-03T08:22:04;101427.22;;;20.93;100.00
12801;BME280;6464;42.494;27.470;2022-10-03T08:25:08;101380.84;;;20.57;100.00
12801;BME280;6464;42.494;27.470;2022-10-03T08:34:02;101436.81;;;21.16;100.00
12801;BME280;6464;42.494;27.470;2022-10-03T08:37:12;101363.44;;;20.83;100.00
12801;BME280;6464;42.494;27.470;2022-10-03T08:40:35;101396.97;;;21.09;100.00
12801;BME280;6464;42.494;27.470;2022-10-03T08:50:27;101485.53;;;23.52;100.00
12801;BME280;6464;42.494;27.470;2022-10-03T08:56:05;101559.03;;;25.65;100.00
12801;BME280;6464;42.494;27.470;2022-10-03T09:01:40;101554.53;;;24.27;100.00
12801;BME280;6464;42.494;27.470;2022-10-03T09:04:44;101561.75;;;24.55;100.00
12801;BME280;6464;42.494;27.470;2022-10-03T09:07:38;101510.25;;;23.89;100.00
12801;BME280;6464;42.494;27.470;2022-10-03T09:10:31;101498.97;;;23.52;100.00
12801;BME280;6464;42.494;27.470;2022-10-03T09:13:31;101538.09;;;23.73;100.00
12801;BME280;6464;42.494;27.470;2022-10-03T09:16:24;101500.25;;;23.30;100.00
12801;BME280;6464;42.494;27.470;2022-10-03T09:19:32;101540.56;;;24.21;100.00
12801;BME280;6464;42.494;27.470;2022-10-03T09:22:19;101564.09;;;24.47;100.00
12801;BME280;6464;42.494;27.470;2022-10-03T09:25:13;101547.72;;;24.36;100.00
12801;BME280;6464;42.494;27.470;2022-10-03T09:28:03;101582.69;;;24.52;100.00
12801;BME280;6464;42.494;27.470;2022-10-03T09:30:51;101586.13;;;24.82;100.00
12801;BME280;6464;42.494;27.470;2022-10-03T09:33:53;101587.91;;;24.96;100.00
12801;BME280;6464;42.494;27.470;2022-10-03T09:40:09;101567.41;;;24.79;100.00
12801;BME280;6464;42.494;27.470;2022-10-03T09:49:34;101579.13;;;25.61;100.00
12801;BME280;6464;42.494;27.470;2022-10-03T09:52:20;101560.59;;;24.74;100.00
12801;BME280;6464;42.494;27.470;2022-10-03T09:55:33;101556.59;;;24.94;100.00
12801;BME280;6464;42.494;27.470;2022-10-03T09:58:21;101545.06;;;24.77;100.00
12801;BME280;6464;42.494;27.470;2022-10-03T10:01:17;101560.59;;;24.74;100.00
12801;BME280;6464;42.494;27.470;2022-10-03T10:04:19;101550.13;;;24.41;100.00
12801;BME280;6464;42.494;27.470;2022-10-03T10:13:27;101507.91;;;23.82;100.00
12801;BME280;6464;42.494;27.470;2022-10-03T10:16:17;101525.88;;;23.68;100.00
12801;BME280;6464;42.494;27.470;2022-10-03T10:19:28;101493.50;;;23.23;100.00
12801;BME280;6464;42.494;27.470;2022-10-03T10:22:23;101513.84;;;22.81;100.00
12801;BME280;6464;42.494;27.470;2022-10-03T10:25:34;101431.81;;;22.11;100.00
12801;BME280;6464;42.494;27.470;2022-10-03T10:28:32;101459.00;;;22.05;100.00
12801;BME280;6464;42.494;27.470;2022-10-03T10:35:01;101312.97;;;20.73;100.00
12801;BME280;6464;42.494;27.470;2022-10-03T10:44:11;101291.72;;;20.34;100.00
12801;BME280;6464;42.494;27.470;2022-10-03T10:50:27;101405.72;;;20.95;100.00
12801;BME280;6464;42.494;27.470;2022-10-03T11:06:51;101421.13;;;20.55;100.00
12801;BME280;6464;42.494;27.470;2022-10-03T11:10:02;101416.97;;;20.29;100.00
12801;BME280;6464;42.494;27.470;2022-10-03T11:19:51;101405.94;;;19.60;100.00
12801;BME280;6464;42.494;27.470;2022-10-03T11:23:01;101404.53;;;19.31;100.00
12801;BME280;6464;42.494;27.470;2022-10-03T11:26:16;101279.41;;;18.35;100.00
12801;BME280;6464;42.494;27.470;2022-10-03T11:35:33;101287.25;;;17.96;100.00
12801;BME280;6464;42.494;27.470;2022-10-03T11:38:12;101306.06;;;17.93;100.00
12801;BME280;6464;42.494;27.470;2022-10-03T11:40:57;101180.31;;;17.11;100.00
12801;BME280;6464;42.494;27.470;2022-10-03T11:43:55;101245.78;;;17.42;100.00
12801;BME280;6464;42.494;27.470;2022-10-03T11:52:43;101296.69;;;17.83;100.00
12801;BME280;6464;42.494;27.470;2022-10-03T11:55:24;101149.88;;;16.70;100.00
12801;BME280;6464;42.494;27.470;2022-10-03T12:01:11;101190.75;;;16.94;100.00
12801;BME280;6464;42.494;27.470;2022-10-03T12:03:53;101241.16;;;17.24;100.00
12801;BME280;6464;42.494;27.470;2022-10-03T12:06:49;101304.91;;;17.53;100.00
12801;BME280;6464;42.494;27.470;2022-10-03T12:09:54;101131.38;;;16.42;100.00
12801;BME280;6464;42.494;27.470;2022-10-03T12:12:32;101292.84;;;17.43;100.00
12801;BME280;6464;42.494;27.470;2022-10-03T12:15:24;101103.97;;;16.38;100.00
12801;BME280;6464;42.494;27.470;2022-10-03T12:18:04;101277.59;;;17.23;100.00
12801;BME280;6464;42.494;27.470;2022-10-03T12:20:45;101160.94;;;16.59;100.00
12801;BME280;6464;42.494;27.470;2022-10-03T12:23:26;101124.91;;;16.49;100.00
12801;BME280;6464;42.494;27.470;2022-10-03T12:26:08;101080.72;;;16.43;100.00
12801;BME280;6464;42.494;27.470;2022-10-03T12:28:42;101069.38;;;16.38;100.00
12801;BME280;6464;42.494;27.470;2022-10-03T12:31:18;101081.59;;;16.67;100.00
12801;BME280;6464;42.494;27.470;2022-10-03T12:33:53;101258.63;;;17.54;100.00
12801;BME280;6464;42.494;27.470;2022-10-03T12:36:29;101263.53;;;17.43;100.00
12801;BME280;6464;42.494;27.470;2022-10-03T12:39:13;101200.81;;;17.33;100.00
12801;BME280;6464;42.494;27.470;2022-10-03T12:41:59;101051.81;;;16.34;100.00
12801;BME280;6464;42.494;27.470;2022-10-03T12:44:41;101229.53;;;17.26;100.00
12801;BME280;6464;42.494;27.470;2022-10-03T12:47:28;101167.13;;;16.85;100.00
12801;BME280;6464;42.494;27.470;2022-10-03T12:50:06;101170.22;;;16.96;100.00
12801;BME280;6464;42.494;27.470;2022-10-03T12:52:45;101212.88;;;17.43;100.00
12801;BME280;6464;42.494;27.470;2022-10-03T12:55:25;101093.09;;;16.69;100.00
12801;BME280;6464;42.494;27.470;2022-10-03T12:58:14;101251.06;;;17.89;100.00
12801;BME280;6464;42.494;27.470;2022-10-03T13:00:56;101080.94;;;16.86;100.00
12801;BME280;6464;42.494;27.470;2022-10-03T13:03:36;101231.34;;;17.69;100.00
12801;BME280;6464;42.494;27.470;2022-10-03T13:06:23;101265.81;;;17.99;100.00
12801;BME280;6464;42.494;27.470;2022-10-03T13:09:10;101225.13;;;17.70;100.00
12801;BME280;6464;42.494;27.470;2022-10-03T13:11:52;101155.53;;;17.09;100.00
12801;BME280;6464;42.494;27.470;2022-10-03T13:17:33;101225.84;;;17.76;100.00
12801;BME280;6464;42.494;27.470;2022-10-03T13:20:20;101164.94;;;17.41;100.00
12801;BME280;6464;42.494;27.470;2022-10-03T13:22:59;101169.50;;;17.38;100.00
12801;BME280;6464;42.494;27.470;2022-10-03T13:25:43;101127.75;;;17.15;100.00
12801;BME280;6464;42.494;27.470;2022-10-03T13:28:19;101099.66;;;17.06;100.00
12801;BME280;6464;42.494;27.470;2022-10-03T13:30:57;101138.31;;;17.18;100.00
12801;BME280;6464;42.494;27.470;2022-10-03T13:33:31;101157.97;;;17.37;100.00
12801;BME280;6464;42.494;27.470;2022-10-03T13:36:08;101077.84;;;16.96;100.00
12801;BME280;6464;42.494;27.470;2022-10-03T13:38:54;101204.13;;;17.61;100.00
12801;BME280;6464;42.494;27.470;2022-10-03T13:42:02;101112.19;;;17.04;100.00
12801;BME280;6464;42.494;27.470;2022-10-03T13:44:48;101170.44;;;17.37;100.00
12801;BME280;6464;42.494;27.470;2022-10-03T13:47:39;101241.69;;;17.79;100.00
12801;BME280;6464;42.494;27.470;2022-10-03T13:50:16;101099.81;;;16.80;100.00
12801;BME280;6464;42.494;27.470;2022-10-03T13:52:49;101251.09;;;17.65;100.00
12801;BME280;6464;42.494;27.470;2022-10-03T13:55:39;101191.28;;;17.49;100.00
12801;BME280;6464;42.494;27.470;2022-10-03T13:58:22;101246.75;;;17.86;100.00
12801;BME280;6464;42.494;27.470;2022-10-03T14:01:06;101179.94;;;17.44;100.00
12801;BME280;6464;42.494;27.470;2022-10-03T14:03:45;101230.44;;;17.70;100.00
12801;BME280;6464;42.494;27.470;2022-10-03T14:06:24;101276.22;;;18.05;100.00
12801;BME280;6464;42.494;27.470;2022-10-03T14:11:54;101243.56;;;17.77;100.00
12801;BME280;6464;42.494;27.470;2022-10-03T14:14:52;101203.88;;;17.67;100.00
12801;BME280;6464;42.494;27.470;2022-10-03T14:17:29;101199.94;;;17.78;100.00
12801;BME280;6464;42.494;27.470;2022-10-03T14:20:10;101115.19;;;17.18;100.00
12801;BME280;6464;42.494;27.470;2022-10-03T14:22:51;101205.97;;;17.83;100.00
12801;BME280;6464;42.494;27.470;2022-10-03T14:25:25;101160.16;;;17.50;100.00
12801;BME280;6464;42.494;27.470;2022-10-03T14:27:54;101147.97;;;18.08;100.00
12801;BME280;6464;42.494;27.470;2022-10-03T14:30:27;101116.44;;;17.76;100.00
12801;BME280;6464;42.494;27.470;2022-10-03T14:33:11;101258.03;;;18.57;100.00
12801;BME280;6464;42.494;27.470;2022-10-03T14:35:50;101246.28;;;20.50;100.00
12801;BME280;6464;42.494;27.470;2022-10-03T14:38:30;101259.47;;;22.49;100.00
12801;BME280;6464;42.494;27.470;2022-10-03T14:41:21;101393.56;;;24.29;100.00
12801;BME280;6464;42.494;27.470;2022-10-03T14:43:52;101380.84;;;25.25;100.00
12801;BME280;6464;42.494;27.470;2022-10-03T14:46:24;101421.78;;;25.70;100.00
12801;BME280;6464;42.494;27.470;2022-10-03T14:48:55;101351.88;;;25.53;100.00
12801;BME280;6464;42.494;27.470;2022-10-03T14:51:29;101432.13;;;26.64;100.00
12801;BME280;6464;42.494;27.470;2022-10-03T14:54:01;101428.22;;;26.68;100.00
12801;BME280;6464;42.494;27.470;2022-10-03T14:56:32;101457.41;;;26.76;100.00
12801;BME280;6464;42.494;27.470;2022-10-03T14:59:02;101453.59;;;26.78;100.00
12801;BME280;6464;42.494;27.470;2022-10-03T15:01:46;101436.56;;;26.15;100.00
12801;BME280;6464;42.494;27.470;2022-10-03T15:04:23;101439.97;;;25.94;100.00
12801;BME280;6464;42.494;27.470;2022-10-03T15:06:55;101367.66;;;24.41;100.00
12801;BME280;6464;42.494;27.470;2022-10-03T15:09:41;101365.41;;;22.91;100.00
12801;BME280;6464;42.494;27.470;2022-10-03T15:12:11;101309.97;;;20.97;100.00
12801;BME280;6464;42.494;27.470;2022-10-03T15:14:46;101253.19;;;20.19;100.00
12801;BME280;6464;42.494;27.470;2022-10-03T15:17:23;101176.56;;;19.07;100.00
12801;BME280;6464;42.494;27.470;2022-10-03T15:19:54;101265.25;;;19.35;100.00
12801;BME280;6464;42.494;27.470;2022-10-03T15:22:35;101264.06;;;18.83;100.00
12801;BME280;6464;42.494;27.470;2022-10-03T15:25:15;101257.38;;;18.72;100.00
12801;BME280;6464;42.494;27.470;2022-10-03T15:27:48;101232.47;;;18.30;100.00
12801;BME280;6464;42.494;27.470;2022-10-03T15:30:24;101113.44;;;17.39;100.00
12801;BME280;6464;42.494;27.470;2022-10-03T15:32:53;101223.97;;;18.00;100.00
12801;BME280;6464;42.494;27.470;2022-10-03T15:35:26;101127.41;;;17.24;100.00
12801;BME280;6464;42.494;27.470;2022-10-03T15:38:06;101265.31;;;17.89;100.00
12801;BME280;6464;42.494;27.470;2022-10-03T15:40:38;101122.16;;;16.99;100.00
12801;BME280;6464;42.494;27.470;2022-10-03T15:43:26;101119.91;;;16.88;100.00
12801;BME280;6464;42.494;27.470;2022-10-03T15:45:56;101204.28;;;17.35;100.00
12801;BME280;6464;42.494;27.470;2022-10-03T15:48:29;101218.66;;;17.31;100.00
12801;BME280;6464;42.494;27.470;2022-10-03T15:50:57;101186.22;;;16.96;100.00
12801;BME280;6464;42.494;27.470;2022-10-03T15:53:31;101230.03;;;17.12;100.00
12801;BME280;6464;42.494;27.470;2022-10-03T15:56:08;101278.72;;;17.41;100.00
12801;BME280;6464;42.494;27.470;2022-10-03T15:58:38;101282.53;;;17.34;100.00
12801;BME280;6464;42.494;27.470;2022-10-03T16:01:12;101171.56;;;16.59;100.00
12801;BME280;6464;42.494;27.470;2022-10-03T16:03:44;101179.16;;;16.70;100.00
12801;BME280;6464;42.494;27.470;2022-10-03T16:06:19;101203.09;;;16.72;100.00
12801;BME280;6464;42.494;27.470;2022-10-03T16:09:02;101244.25;;;16.88;100.00
12801;BME280;6464;42.494;27.470;2022-10-03T16:11:36;101199.31;;;16.54;100.00
12801;BME280;6464;42.494;27.470;2022-10-03T16:14:22;101114.38;;;15.96;100.00
12801;BME280;6464;42.494;27.470;2022-10-03T16:16:55;101195.34;;;16.39;100.00
12801;BME280;6464;42.494;27.470;2022-10-03T16:19:30;101139.97;;;15.99;100.00
12801;BME280;6464;42.494;27.470;2022-10-03T16:22:15;101114.47;;;15.93;100.00
12801;BME280;6464;42.494;27.470;2022-10-03T16:25:03;101292.00;;;16.94;100.00
12801;BME280;6464;42.494;27.470;2022-10-03T16:27:43;101088.63;;;15.72;100.00
12801;BME280;6464;42.494;27.470;2022-10-03T16:30:19;101256.06;;;16.81;100.00
12801;BME280;6464;42.494;27.470;2022-10-03T16:32:53;101125.50;;;16.07;100.00
12801;BME280;6464;42.494;27.470;2022-10-03T16:35:31;101139.41;;;16.15;100.00
12801;BME280;6464;42.494;27.470;2022-10-03T16:38:06;101307.00;;;17.21;100.00
12801;BME280;6464;42.494;27.470;2022-10-03T16:40:36;101264.34;;;16.96;100.00
12801;BME280;6464;42.494;27.470;2022-10-03T16:43:18;101156.97;;;16.21;100.00
12801;BME280;6464;42.494;27.470;2022-10-03T16:45:47;101241.34;;;16.69;100.00
12801;BME280;6464;42.494;27.470;2022-10-03T16:48:19;101335.50;;;17.43;100.00
12801;BME280;6464;42.494;27.470;2022-10-03T16:51:16;101239.19;;;16.80;100.00
12801;BME280;6464;42.494;27.470;2022-10-03T16:53:48;101188.53;;;16.57;100.00
12801;BME280;6464;42.494;27.470;2022-10-03T16:56:22;101195.41;;;16.62;100.00
12801;BME280;6464;42.494;27.470;2022-10-03T16:58:53;101210.94;;;16.76;100.00
12801;BME280;6464;42.494;27.470;2022-10-03T17:01:26;101318.34;;;17.27;100.00
12801;BME280;6464;42.494;27.470;2022-10-03T17:04:00;101352.56;;;17.39;100.00
12801;BME280;6464;42.494;27.470;2022-10-03T17:06:30;101237.84;;;16.67;100.00
12801;BME280;6464;42.494;27.470;2022-10-03T17:09:02;101302.34;;;17.02;100.00
12801;BME280;6464;42.494;27.470;2022-10-03T17:11:36;101287.00;;;16.85;100.00
12801;BME280;6464;42.494;27.470;2022-10-03T17:14:06;101339.34;;;17.11;100.00
12801;BME280;6464;42.494;27.470;2022-10-03T17:16:37;101278.63;;;16.69;100.00
12801;BME280;6464;42.494;27.470;2022-10-03T17:19:18;101261.56;;;16.50;100.00
12801;BME280;6464;42.494;27.470;2022-10-03T17:21:50;101333.94;;;16.87;100.00
12801;BME280;6464;42.494;27.470;2022-10-03T17:24:36;101396.16;;;17.13;100.00
12801;BME280;6464;42.494;27.470;2022-10-03T17:27:11;101342.94;;;16.85;100.00
12801;BME280;6464;42.494;27.470;2022-10-03T17:29:45;101302.53;;;16.45;100.00
12801;BME280;6464;42.494;27.470;2022-10-03T17:32:20;101318.38;;;16.49;100.00
12801;BME280;6464;42.494;27.470;2022-10-03T17:34:53;101312.69;;;16.33;100.00
12801;BME280;6464;42.494;27.470;2022-10-03T17:37:46;101429.63;;;16.95;100.00
12801;BME280;6464;42.494;27.470;2022-10-03T17:40:21;101276.72;;;15.93;100.00
12801;BME280;6464;42.494;27.470;2022-10-03T17:42:54;101418.88;;;16.70;100.00
12801;BME280;6464;42.494;27.470;2022-10-03T17:45:33;101394.13;;;16.40;100.00
12801;BME280;6464;42.494;27.470;2022-10-03T17:48:11;101295.31;;;15.66;100.00
12801;BME280;6464;42.494;27.470;2022-10-03T17:50:52;101295.56;;;15.56;100.00
12801;BME280;6464;42.494;27.470;2022-10-03T17:53:25;101277.28;;;15.45;100.00
12801;BME280;6464;42.494;27.470;2022-10-03T17:55:56;101316.16;;;15.49;100.00
12801;BME280;6464;42.494;27.470;2022-10-03T17:58:28;101389.50;;;15.87;100.00
12801;BME280;6464;42.494;27.470;2022-10-03T18:01:05;101313.28;;;15.26;100.00
12801;BME280;6464;42.494;27.470;2022-10-03T18:03:38;101422.38;;;15.86;100.00
12801;BME280;6464;42.494;27.470;2022-10-03T18:06:34;101452.84;;;16.04;100.00
12801;BME280;6464;42.494;27.470;2022-10-03T18:09:08;101449.59;;;15.94;100.00
12801;BME280;6464;42.494;27.470;2022-10-03T18:11:37;101313.59;;;15.15;100.00
12801;BME280;6464;42.494;27.470;2022-10-03T18:14:14;101283.31;;;14.89;100.00
12801;BME280;6464;42.494;27.470;2022-10-03T18:16:47;101316.69;;;14.98;100.00
12801;BME280;6464;42.494;27.470;2022-10-03T18:19:29;101302.91;;;14.84;100.00
12801;BME280;6464;42.494;27.470;2022-10-03T18:22:10;101458.06;;;15.78;100.00
12801;BME280;6464;42.494;27.470;2022-10-03T18:24:49;101290.03;;;14.70;100.00
12801;BME280;6464;42.494;27.470;2022-10-03T18:27:41;101353.75;;;15.03;100.00
12801;BME280;6464;42.494;27.470;2022-10-03T18:30:19;101417.16;;;15.49;100.00
12801;BME280;6464;42.494;27.470;2022-10-03T18:32:48;101292.72;;;14.69;100.00
12801;BME280;6464;42.494;27.470;2022-10-03T18:35:20;101356.81;;;14.87;100.00
12801;BME280;6464;42.494;27.470;2022-10-03T18:40:34;101476.41;;;15.54;100.00
12801;BME280;6464;42.494;27.470;2022-10-03T18:43:27;101478.31;;;15.49;100.00
12801;BME280;6464;42.494;27.470;2022-10-03T18:46:01;101475.72;;;15.46;100.00
12801;BME280;6464;42.494;27.470;2022-10-03T18:48:36;101395.75;;;14.88;100.00
12801;BME280;6464;42.494;27.470;2022-10-03T18:51:12;101311.22;;;14.36;100.00
12801;BME280;6464;42.494;27.470;2022-10-03T18:53:47;101305.13;;;14.32;100.00
12801;BME280;6464;42.494;27.470;2022-10-03T18:56:20;101338.91;;;14.61;100.00
12801;BME280;6464;42.494;27.470;2022-10-03T18:59:06;101356.59;;;14.62;100.00
12801;BME280;6464;42.494;27.470;2022-10-03T19:01:42;101456.03;;;15.21;100.00
12801;BME280;6464;42.494;27.470;2022-10-03T19:04:13;101456.97;;;15.18;100.00
12801;BME280;6464;42.494;27.470;2022-10-03T19:06:44;101473.88;;;15.15;100.00
12801;BME280;6464;42.494;27.470;2022-10-03T19:09:17;101417.16;;;14.82;100.00
12801;BME280;6464;42.494;27.470;2022-10-03T19:11:50;101269.06;;;13.88;100.00
12801;BME280;6464;42.494;27.470;2022-10-03T19:14:27;101398.13;;;14.65;100.00
12801;BME280;6464;42.494;27.470;2022-10-03T19:17:11;101473.41;;;14.98;100.00
12801;BME280;6464;42.494;27.470;2022-10-03T19:19:48;101399.22;;;14.56;100.00
12801;BME280;6464;42.494;27.470;2022-10-03T19:22:21;101463.91;;;14.89;100.00
12801;BME280;6464;42.494;27.470;2022-10-03T19:24:51;101294.53;;;13.94;100.00
12801;BME280;6464;42.494;27.470;2022-10-03T19:27:23;101432.59;;;14.67;100.00
12801;BME280;6464;42.494;27.470;2022-10-03T19:29:52;101291.44;;;13.75;100.00
12801;BME280;6464;42.494;27.470;2022-10-03T19:32:26;101467.59;;;14.82;100.00
12801;BME280;6464;42.494;27.470;2022-10-03T19:34:59;101436.38;;;14.56;100.00
12801;BME280;6464;42.494;27.470;2022-10-03T19:37:40;101426.63;;;14.57;100.00
12801;BME280;6464;42.494;27.470;2022-10-03T19:40:13;101300.06;;;13.84;100.00
12801;BME280;6464;42.494;27.470;2022-10-03T19:42:44;101319.44;;;13.88;100.00
12801;BME280;6464;42.494;27.470;2022-10-03T19:45:14;101311.78;;;13.73;100.00
12801;BME280;6464;42.494;27.470;2022-10-03T19:47:50;101421.56;;;14.46;100.00
12801;BME280;6464;42.494;27.470;2022-10-03T19:50:20;101314.38;;;13.76;100.00
12801;BME280;6464;42.494;27.470;2022-10-03T19:52:52;101371.91;;;14.12;100.00
12801;BME280;6464;42.494;27.470;2022-10-03T19:55:20;101292.50;;;13.66;100.00
12801;BME280;6464;42.494;27.470;2022-10-03T19:57:51;101422.41;;;14.47;100.00
12801;BME280;6464;42.494;27.470;2022-10-03T20:00:23;101283.84;;;13.58;100.00
12801;BME280;6464;42.494;27.470;2022-10-03T20:03:03;101402.28;;;14.38;100.00
12801;BME280;6464;42.494;27.470;2022-10-03T20:05:36;101399.88;;;14.26;100.00
12801;BME280;6464;42.494;27.470;2022-10-03T20:08:18;101491.97;;;14.62;100.00
12801;BME280;6464;42.494;27.470;2022-10-03T20:10:59;101309.41;;;13.60;100.00
12801;BME280;6464;42.494;27.470;2022-10-03T20:13:29;101298.81;;;13.60;100.00
12801;BME280;6464;42.494;27.470;2022-10-03T20:15:57;101480.50;;;14.62;100.00
12801;BME280;6464;42.494;27.470;2022-10-03T20:18:31;101480.44;;;14.63;100.00
12801;BME280;6464;42.494;27.470;2022-10-03T20:20:59;101478.56;;;14.69;100.00
12801;BME280;6464;42.494;27.470;2022-10-03T20:23:30;101373.91;;;14.03;100.00
12801;BME280;6464;42.494;27.470;2022-10-03T20:26:03;101482.84;;;14.74;100.00
12801;BME280;6464;42.494;27.470;2022-10-03T20:28:49;101423.44;;;14.41;100.00